Time;durP1;ratioP1;P1;durP2;ratioP2;P2;SDS_P1;SDS_P2;PMS_P1;PMS_P2;Temp;Humidity;BMP_temperature;BMP_pressure;BME280_temperature;BME280_humidity;BME280_pressure;Samples;Min_cycle;Max_cycle;Signal;HPM_P1;HPM_P2
2023/04/30 00:00:51;;;;;;;8.55;6.32;;;6.50;99.90;;;;;;6160008;23;20020;-83
2023/04/30 00:03:17;;;;;;;9.18;5.43;;;6.50;99.90;;;;;;6134871;23;20091;-84
2023/04/30 00:05:42;;;;;;;6.97;5.82;;;6.40;99.90;;;;;;6186156;23;20013;-84
2023/04/30 00:08:08;;;;;;;7.63;5.43;;;6.30;99.90;;;;;;6159993;23;20020;-83
2023/04/30 00:10:34;;;;;;;9.77;5.78;;;6.30;99.90;;;;;;6159563;23;20017;-84
2023/04/30 00:12:59;;;;;;;7.97;5.75;;;6.40;99.90;;;;;;6186124;23;20264;-84
2023/04/30 00:15:25;;;;;;;7.40;6.05;;;6.50;99.90;;;;;;6159304;23;20345;-84
2023/04/30 00:17:52;;;;;;;7.38;5.75;;;6.40;99.90;;;;;;6159382;23;20025;-84
2023/04/30 00:20:17;;;;;;;7.25;5.75;;;6.40;99.90;;;;;;6139329;23;20013;-84
2023/04/30 00:22:43;;;;;;;6.55;5.03;;;6.40;99.90;;;;;;6184151;23;20097;-83
2023/04/30 00:25:09;;;;;;;6.60;5.10;;;6.30;99.90;;;;;;6185993;23;20032;-84
2023/04/30 00:27:34;;;;;;;6.50;4.85;;;6.20;99.90;;;;;;6184064;23;20017;-84
2023/04/30 00:30:00;;;;;;;6.40;4.88;;;6.10;99.90;;;;;;6183925;23;20016;-84
2023/04/30 00:32:25;;;;;;;6.60;4.75;;;6.00;99.90;;;;;;6186045;23;20099;-84
2023/04/30 00:34:51;;;;;;;6.80;5.15;;;5.90;99.90;;;;;;6183982;23;20028;-84
2023/04/30 00:37:17;;;;;;;6.78;5.32;;;5.90;99.90;;;;;;6184072;23;20016;-84
2023/04/30 00:39:42;;;;;;;8.07;5.40;;;5.70;99.90;;;;;;6187365;23;20040;-84
2023/04/30 00:42:08;;;;;;;8.73;5.53;;;5.60;99.90;;;;;;6187795;23;20039;-84
2023/04/30 00:44:33;;;;;;;7.30;6.00;;;5.60;99.90;;;;;;6188458;23;20095;-83
2023/04/30 00:46:59;;;;;;;11.52;6.75;;;5.60;99.90;;;;;;6185974;23;20013;-83
2023/04/30 00:49:25;;;;;;;12.00;5.90;;;5.70;99.90;;;;;;6186040;23;20013;-84
2023/04/30 00:51:51;;;;;;;10.65;7.07;;;5.70;99.90;;;;;;6185915;23;20017;-83
2023/04/30 00:54:19;;;;;;;12.63;7.30;;;5.70;99.90;;;;;;6161200;23;20013;-84
2023/04/30 00:56:45;;;;;;;10.52;7.22;;;5.70;99.90;;;;;;6187857;23;20009;-84
2023/04/30 00:59:14;;;;;;;8.23;6.63;;;5.70;99.90;;;;;;6185769;23;20017;-84
2023/04/30 01:01:40;;;;;;;7.00;5.82;;;5.80;99.90;;;;;;6185756;23;20013;-83
2023/04/30 01:04:06;;;;;;;8.00;6.25;;;5.80;99.90;;;;;;6185670;23;20028;-84
2023/04/30 01:06:32;;;;;;;8.82;6.55;;;5.80;99.90;;;;;;6187662;23;20013;-84
2023/04/30 01:08:58;;;;;;;9.10;7.00;;;5.80;99.90;;;;;;6185716;23;20064;-84
2023/04/30 01:11:32;;;;;;;11.25;7.07;;;5.70;99.90;;;;;;6185821;23;20017;-84
2023/04/30 01:14:11;;;;;;;8.63;5.75;;;5.70;99.90;;;;;;6185615;23;20052;-83
2023/04/30 01:16:50;;;;;;;7.70;6.47;;;5.70;99.90;;;;;;6187674;23;20020;-84
2023/04/30 01:19:34;;;;;;;9.55;6.95;;;5.70;99.90;;;;;;6160842;23;20028;-84
2023/04/30 01:22:03;;;;;;;8.25;6.80;;;5.60;99.90;;;;;;6187448;23;20020;-84
2023/04/30 01:24:47;;;;;;;9.45;7.07;;;5.60;99.90;;;;;;6185633;23;20017;-84
2023/04/30 01:27:46;;;;;;;6.32;5.35;;;5.70;99.90;;;;;;6185530;23;20020;-83
2023/04/30 01:30:13;;;;;;;8.20;6.53;;;5.70;99.90;;;;;;6187438;23;20114;-83
2023/04/30 01:32:38;;;;;;;6.32;5.00;;;5.70;99.90;;;;;;6185554;23;20024;-84
2023/04/30 01:35:04;;;;;;;8.80;5.90;;;5.50;99.90;;;;;;6185278;23;20339;-83
2023/04/30 01:38:10;;;;;;;6.93;5.13;;;5.40;99.90;;;;;;6187049;23;20048;-84
2023/04/30 01:40:56;;;;;;;9.07;7.03;;;5.40;99.90;;;;;;6187019;23;20020;-84
2023/04/30 01:44:03;;;;;;;10.55;7.45;;;5.50;99.90;;;;;;6185400;23;20024;-84
2023/04/30 01:46:29;;;;;;;10.00;7.15;;;5.50;99.90;;;;;;6185718;23;20156;-83
2023/04/30 01:49:33;;;;;;;10.85;7.53;;;5.40;99.90;;;;;;6185317;23;20009;-84
2023/04/30 01:52:08;;;;;;;9.60;7.38;;;5.40;99.90;;;;;;6185629;23;20049;-84
2023/04/30 01:54:43;;;;;;;9.57;7.68;;;5.30;99.90;;;;;;6160657;23;20469;-84
2023/04/30 01:57:16;;;;;;;10.90;7.90;;;5.20;99.90;;;;;;6187040;23;20020;-84
2023/04/30 01:59:43;;;;;;;9.60;6.68;;;5.10;99.90;;;;;;6186955;23;20151;-84
2023/04/30 02:02:08;;;;;;;8.55;6.75;;;5.20;99.90;;;;;;6184975;23;20023;-83
2023/04/30 02:04:35;;;;;;;9.93;6.30;;;5.00;99.90;;;;;;6185013;23;20409;-84
2023/04/30 02:07:00;;;;;;;9.68;7.55;;;5.00;99.90;;;;;;6185455;23;20016;-84
2023/04/30 02:09:26;;;;;;;10.07;8.02;;;5.10;99.90;;;;;;6187003;23;20013;-83
2023/04/30 02:11:52;;;;;;;10.27;7.90;;;5.10;99.90;;;;;;6185067;23;20005;-84
2023/04/30 02:14:17;;;;;;;8.48;6.78;;;5.10;99.90;;;;;;6186984;23;20009;-84
2023/04/30 02:16:43;;;;;;;10.13;7.55;;;5.10;99.90;;;;;;6186797;23;20064;-83
2023/04/30 02:19:08;;;;;;;9.38;6.60;;;5.10;99.90;;;;;;6186853;23;20024;-83
2023/04/30 02:21:34;;;;;;;7.68;6.15;;;5.10;99.90;;;;;;6186304;23;20013;-84
2023/04/30 02:23:59;;;;;;;7.97;6.47;;;5.00;99.90;;;;;;6160087;23;20052;-83
2023/04/30 02:26:25;;;;;;;7.55;6.43;;;4.90;99.90;;;;;;6135561;23;20032;-83
2023/04/30 02:28:51;;;;;;;7.20;5.50;;;5.00;99.90;;;;;;6186460;23;20020;-83
2023/04/30 02:31:17;;;;;;;6.10;5.50;;;5.00;99.90;;;;;;6135587;23;20088;-83
2023/04/30 02:33:42;;;;;;;10.77;5.88;;;4.90;99.90;;;;;;6159954;23;20316;-83
2023/04/30 02:36:08;;;;;;;18.17;5.85;;;4.80;99.90;;;;;;6159960;23;20017;-83
2023/04/30 02:38:34;;;;;;;7.45;5.88;;;4.70;99.90;;;;;;6186296;23;20009;-83
2023/04/30 02:41:01;;;;;;;9.40;7.28;;;4.70;99.90;;;;;;6135298;23;20075;-83
2023/04/30 02:43:26;;;;;;;9.90;6.85;;;4.70;99.90;;;;;;6159691;23;20500;-84
2023/04/30 02:45:52;;;;;;;9.98;7.43;;;4.70;99.90;;;;;;6159887;23;20044;-84
2023/04/30 02:48:17;;;;;;;11.32;7.40;;;4.70;99.90;;;;;;6160711;23;20028;-83
2023/04/30 02:50:43;;;;;;;9.10;7.38;;;4.70;99.90;;;;;;6159945;23;20013;-83
2023/04/30 02:53:09;;;;;;;11.43;8.07;;;4.80;99.90;;;;;;6159893;23;20013;-84
2023/04/30 02:55:34;;;;;;;9.73;7.70;;;4.80;99.90;;;;;;6186126;23;20013;-84
2023/04/30 02:58:00;;;;;;;7.95;6.97;;;4.70;99.90;;;;;;6159814;23;20013;-84
2023/04/30 03:00:26;;;;;;;10.23;6.07;;;4.80;99.90;;;;;;6159865;23;20120;-84
2023/04/30 03:02:51;;;;;;;11.50;7.10;;;4.70;99.90;;;;;;6159220;23;20055;-84
2023/04/30 03:05:17;;;;;;;12.95;7.80;;;4.60;99.90;;;;;;6159652;23;20386;-84
2023/04/30 03:07:42;;;;;;;10.93;8.48;;;4.60;99.90;;;;;;6186342;23;20020;-84
2023/04/30 03:10:09;;;;;;;9.23;7.13;;;4.70;99.90;;;;;;6159733;23;20013;-83
2023/04/30 03:12:35;;;;;;;9.80;6.82;;;4.60;99.90;;;;;;6186052;23;20024;-83
2023/04/30 03:15:00;;;;;;;7.97;6.88;;;4.50;99.90;;;;;;6159624;23;20017;-84
2023/04/30 03:17:26;;;;;;;13.20;7.28;;;4.40;99.90;;;;;;6186326;23;20020;-84
2023/04/30 03:19:52;;;;;;;10.05;8.05;;;4.40;99.90;;;;;;6186100;23;20431;-83
2023/04/30 03:22:18;;;;;;;9.80;7.60;;;4.50;99.90;;;;;;6186261;23;20059;-84
2023/04/30 03:24:44;;;;;;;10.18;7.40;;;4.40;99.90;;;;;;6159530;23;20013;-84
2023/04/30 03:27:10;;;;;;;7.38;6.63;;;4.30;99.90;;;;;;6186226;23;20076;-83
2023/04/30 03:29:36;;;;;;;8.60;6.45;;;4.30;99.90;;;;;;6159493;23;20204;-83
2023/04/30 03:32:01;;;;;;;7.70;6.70;;;4.30;99.90;;;;;;6159460;23;20017;-84
2023/04/30 03:34:27;;;;;;;8.93;6.63;;;4.20;99.90;;;;;;6186134;23;20005;-83
2023/04/30 03:36:53;;;;;;;7.05;6.03;;;4.30;99.90;;;;;;6134849;23;20013;-83
2023/04/30 03:39:18;;;;;;;7.05;5.43;;;4.30;99.90;;;;;;6186070;23;20017;-83
2023/04/30 03:41:44;;;;;;;5.95;5.35;;;4.20;99.90;;;;;;6159387;23;20013;-84
2023/04/30 03:44:14;;;;;;;6.05;5.32;;;4.20;99.90;;;;;;6159491;23;20351;-83
2023/04/30 03:46:41;;;;;;;;;;;4.30;99.90;;;;;;6159959;23;20043;-83
2023/04/30 03:49:06;;;;;;;6.47;4.10;;;4.40;99.90;;;;;;6186046;23;19915;-84
2023/04/30 03:51:32;;;;;;;5.47;4.78;;;4.30;99.90;;;;;;6159370;23;20013;-83
2023/04/30 03:53:58;;;;;;;8.85;4.30;;;4.50;99.90;;;;;;6185619;23;20333;-84
2023/04/30 03:56:24;;;;;;;5.75;3.75;;;4.50;99.90;;;;;;6159465;23;20028;-84
2023/04/30 03:58:50;;;;;;;6.05;5.13;;;4.50;99.90;;;;;;6159739;23;20084;-84
2023/04/30 04:01:16;;;;;;;6.68;5.57;;;4.50;99.90;;;;;;6186111;23;20052;-84
2023/04/30 04:03:42;;;;;;;6.30;5.20;;;4.40;99.90;;;;;;6159304;23;20044;-84
2023/04/30 04:06:08;;;;;;;5.15;4.63;;;4.40;99.90;;;;;;6159308;23;20438;-84
2023/04/30 04:08:33;;;;;;;6.20;5.50;;;4.40;99.90;;;;;;6159507;23;20081;-84
2023/04/30 04:10:59;;;;;;;7.00;5.13;;;4.40;99.90;;;;;;6185907;23;20366;-84
2023/04/30 04:13:25;;;;;;;6.00;5.18;;;4.30;99.90;;;;;;6158720;23;20025;-84
2023/04/30 04:15:50;;;;;;;6.82;5.50;;;4.40;99.90;;;;;;6185920;23;20017;-84
2023/04/30 04:18:16;;;;;;;9.30;6.40;;;4.30;99.90;;;;;;6185915;23;20406;-84
2023/04/30 04:20:41;;;;;;;9.05;7.32;;;4.30;99.90;;;;;;6168569;23;20044;-84
2023/04/30 04:23:07;;;;;;;16.60;9.23;;;4.30;99.90;;;;;;6183880;23;20096;-84
2023/04/30 04:25:34;;;;;;;17.15;9.68;;;4.30;99.90;;;;;;6183839;23;20307;-84
2023/04/30 04:27:59;;;;;;;43.50;10.88;;;4.30;99.90;;;;;;6183746;23;20017;-84
2023/04/30 04:30:25;;;;;;;44.63;11.60;;;4.40;99.90;;;;;;6185754;23;20056;-84
2023/04/30 04:32:52;;;;;;;49.65;11.70;;;4.50;99.90;;;;;;6158939;23;20052;-84
2023/04/30 04:35:18;;;;;;;79.70;13.70;;;4.40;99.90;;;;;;6183925;23;20354;-84
2023/04/30 04:37:44;;;;;;;38.33;11.68;;;4.50;99.90;;;;;;6185813;23;20022;-84
2023/04/30 04:40:11;;;;;;;148.20;16.00;;;4.50;99.90;;;;;;6186053;23;20016;-84
2023/04/30 04:42:37;;;;;;;152.38;16.17;;;4.60;99.90;;;;;;6185756;23;20028;-83
2023/04/30 04:45:06;;;;;;;72.53;12.13;;;4.60;99.90;;;;;;6185752;23;20009;-84
2023/04/30 04:47:32;;;;;;;62.90;10.68;;;4.70;99.90;;;;;;6185392;23;20013;-82
2023/04/30 04:49:58;;;;;;;57.25;11.10;;;4.70;99.90;;;;;;6183785;23;20045;-82
2023/04/30 04:52:23;;;;;;;10.57;9.48;;;4.70;99.90;;;;;;6183755;23;20024;-82
2023/04/30 04:54:49;;;;;;;24.83;10.55;;;4.90;99.90;;;;;;6183791;23;20024;-84
2023/04/30 04:57:15;;;;;;;11.60;9.00;;;4.90;99.90;;;;;;6185717;23;20051;-84
2023/04/30 04:59:40;;;;;;;10.52;9.27;;;4.80;99.90;;;;;;6185583;23;20100;-84
2023/04/30 05:02:06;;;;;;;10.25;9.32;;;4.90;99.90;;;;;;6185627;23;20044;-84
2023/04/30 05:04:32;;;;;;;10.07;9.07;;;5.00;99.90;;;;;;6185652;23;20088;-84
2023/04/30 05:06:57;;;;;;;10.00;8.25;;;5.10;99.90;;;;;;6183799;23;20020;-84
2023/04/30 05:09:23;;;;;;;9.50;8.60;;;5.30;99.90;;;;;;6185567;23;20013;-84
2023/04/30 05:11:49;;;;;;;11.48;10.38;;;5.40;99.90;;;;;;6183633;23;20013;-84
2023/04/30 05:14:15;;;;;;;12.18;10.98;;;5.40;99.90;;;;;;6185316;23;20469;-84
2023/04/30 05:16:40;;;;;;;10.60;9.60;;;5.30;99.90;;;;;;6185857;23;20009;-84
2023/04/30 05:19:08;;;;;;;10.68;9.57;;;5.40;99.90;;;;;;6185588;23;20086;-84
2023/04/30 05:21:34;;;;;;;10.45;9.30;;;5.50;99.90;;;;;;6185076;23;20125;-84
2023/04/30 05:24:00;;;;;;;10.25;9.20;;;5.50;99.90;;;;;;6158813;23;20043;-84
2023/04/30 05:26:26;;;;;;;12.38;10.05;;;5.60;99.90;;;;;;6160622;23;20017;-84
2023/04/30 05:28:51;;;;;;;11.70;10.10;;;5.60;99.90;;;;;;6187147;23;20296;-84
2023/04/30 05:31:17;;;;;;;11.52;9.93;;;5.70;99.90;;;;;;6136050;23;20009;-84
2023/04/30 05:33:43;;;;;;;12.82;9.57;;;5.90;99.90;;;;;;6187466;23;20013;-84
2023/04/30 05:36:10;;;;;;;13.90;9.65;;;5.90;99.90;;;;;;6160816;23;20020;-84
2023/04/30 05:38:35;;;;;;;14.07;10.00;;;5.90;99.90;;;;;;6187028;23;20490;-84
2023/04/30 05:41:01;;;;;;;10.85;9.75;;;6.00;99.90;;;;;;6160616;23;20044;-84
2023/04/30 05:43:26;;;;;;;11.38;9.02;;;6.10;99.90;;;;;;6160550;23;20025;-84
2023/04/30 05:45:52;;;;;;;12.23;8.73;;;6.10;99.90;;;;;;6187943;23;20017;-84
2023/04/30 05:48:18;;;;;;;13.10;7.85;;;6.20;99.90;;;;;;6160601;23;20009;-84
2023/04/30 05:50:43;;;;;;;12.15;8.35;;;6.20;99.90;;;;;;6187411;23;20116;-84
2023/04/30 05:53:09;;;;;;;11.55;7.53;;;6.40;99.90;;;;;;6187144;23;20024;-85
2023/04/30 05:55:35;;;;;;;10.57;7.50;;;6.50;99.90;;;;;;6160470;23;20469;-85
2023/04/30 05:58:00;;;;;;;15.35;9.05;;;6.40;99.90;;;;;;6160616;23;20092;-84
2023/04/30 06:00:26;;;;;;;19.17;8.32;;;6.50;99.90;;;;;;6160593;23;20342;-85
2023/04/30 06:02:52;;;;;;;13.15;7.72;;;6.60;99.90;;;;;;6187125;23;20013;-84
2023/04/30 06:05:18;;;;;;;15.15;7.72;;;6.70;99.90;;;;;;6187324;23;20005;-85
2023/04/30 06:07:43;;;;;;;11.32;7.72;;;6.70;99.90;;;;;;6160741;23;20493;-85
2023/04/30 06:10:09;;;;;;;12.73;7.90;;;6.90;99.90;;;;;;6160848;23;20044;-85
2023/04/30 06:12:35;;;;;;;11.55;7.90;;;6.80;99.90;;;;;;6160477;23;20482;-74
2023/04/30 06:15:01;;;;;;;14.45;8.95;;;7.00;99.90;;;;;;6160227;23;20291;-78
2023/04/30 06:17:26;;;;;;;13.02;8.35;;;6.90;99.90;;;;;;6160157;23;20021;-77
2023/04/30 06:19:52;;;;;;;14.43;8.05;;;7.10;99.90;;;;;;6186661;23;20566;-76
2023/04/30 06:22:17;;;;;;;12.35;7.30;;;7.10;99.90;;;;;;6186864;23;20021;-76
2023/04/30 06:24:44;;;;;;;13.13;7.97;;;7.10;99.90;;;;;;6160366;23;20019;-77
2023/04/30 06:27:10;;;;;;;16.65;8.50;;;7.20;99.90;;;;;;6186987;23;20051;-77
2023/04/30 06:29:35;;;;;;;13.13;7.25;;;7.20;99.90;;;;;;6160086;23;20320;-77
2023/04/30 06:32:01;;;;;;;11.80;7.00;;;7.20;99.90;;;;;;6186879;23;20076;-77
2023/04/30 06:34:26;;;;;;;13.95;7.43;;;7.40;99.90;;;;;;6135639;23;20135;-77
2023/04/30 06:36:52;;;;;;;10.20;7.53;;;7.50;99.90;;;;;;6186322;23;20037;-77
2023/04/30 06:39:18;;;;;;;10.85;7.13;;;7.50;99.90;;;;;;6186735;23;20454;-77
2023/04/30 06:41:43;;;;;;;16.17;7.53;;;7.60;99.90;;;;;;6160034;23;20009;-77
2023/04/30 06:44:09;;;;;;;16.63;7.13;;;7.70;99.90;;;;;;6160054;23;20017;-77
2023/04/30 06:46:34;;;;;;;14.52;6.85;;;7.90;99.90;;;;;;6186730;23;20013;-77
2023/04/30 06:49:00;;;;;;;13.07;6.72;;;7.90;99.90;;;;;;6186705;23;20056;-77
2023/04/30 06:51:26;;;;;;;12.52;5.93;;;8.00;99.90;;;;;;6186768;23;20012;-76
2023/04/30 06:53:52;;;;;;;15.77;6.88;;;8.00;99.90;;;;;;6160296;23;20103;-76
2023/04/30 06:56:17;;;;;;;11.32;5.03;;;8.10;99.90;;;;;;6186670;23;20017;-77
2023/04/30 06:58:44;;;;;;;13.05;4.43;;;8.20;99.90;;;;;;6186182;23;20017;-76
2023/04/30 07:01:09;;;;;;;14.35;5.18;;;8.30;99.90;;;;;;6186693;23;20318;-77
2023/04/30 07:03:35;;;;;;;14.02;4.95;;;8.50;99.90;;;;;;6159524;23;20024;-83
2023/04/30 07:06:01;;;;;;;13.43;4.82;;;8.60;99.90;;;;;;6160028;23;20049;-80
2023/04/30 07:08:27;;;;;;;12.20;4.38;;;8.80;99.90;;;;;;6160153;23;20051;-83
2023/04/30 07:10:52;;;;;;;11.70;4.88;;;8.80;99.90;;;;;;6160095;23;20020;-81
2023/04/30 07:13:18;;;;;;;10.75;4.43;;;8.80;99.90;;;;;;6186743;23;20009;-84
2023/04/30 07:15:44;;;;;;;12.43;5.28;;;8.80;99.90;;;;;;6187187;23;20024;-83
2023/04/30 07:18:10;;;;;;;9.43;3.47;;;8.90;99.90;;;;;;6187258;23;20067;-84
2023/04/30 07:20:35;;;;;;;12.98;4.43;;;8.90;99.90;;;;;;6186335;23;20059;-83
2023/04/30 07:23:01;;;;;;;10.57;4.40;;;8.90;99.90;;;;;;6186511;23;20028;-85
2023/04/30 07:25:27;;;;;;;9.25;3.33;;;8.90;99.90;;;;;;6159859;23;20159;-82
2023/04/30 07:27:54;;;;;;;7.97;3.28;;;8.90;99.90;;;;;;6159954;23;20024;-84
2023/04/30 07:30:21;;;;;;;9.68;3.63;;;8.90;99.90;;;;;;6135339;23;20022;-85
2023/04/30 07:32:47;;;;;;;11.52;4.25;;;8.90;99.90;;;;;;6159933;23;20096;-81
2023/04/30 07:35:13;;;;;;;9.75;3.67;;;9.00;99.90;;;;;;6159516;23;20095;-83
2023/04/30 07:37:40;;;;;;;13.07;4.20;;;9.00;99.90;;;;;;6186466;23;20068;-86
2023/04/30 07:40:08;;;;;;;8.85;4.18;;;9.00;99.90;;;;;;6186317;23;20051;-84
2023/04/30 07:42:33;;;;;;;10.93;3.53;;;9.10;99.90;;;;;;6159500;23;20351;-83
2023/04/30 07:44:59;;;;;;;8.43;3.58;;;9.20;99.90;;;;;;6159676;23;20461;-75
2023/04/30 07:47:25;;;;;;;10.20;3.20;;;9.30;99.90;;;;;;6159837;23;20179;-75
2023/04/30 07:49:51;;;;;;;7.43;3.30;;;9.30;99.90;;;;;;6134980;23;20048;-74
2023/04/30 07:52:17;;;;;;;12.18;4.15;;;9.40;99.90;;;;;;6185859;23;20013;-75
2023/04/30 07:54:43;;;;;;;9.45;3.80;;;9.50;99.90;;;;;;6159525;23;20080;-75
2023/04/30 07:57:08;;;;;;;10.52;3.60;;;9.70;99.90;;;;;;6159199;23;20063;-76
2023/04/30 07:59:34;;;;;;;8.75;3.22;;;9.70;99.90;;;;;;6185793;23;20382;-75
2023/04/30 08:02:00;;;;;;;10.30;3.72;;;9.90;99.90;;;;;;6160032;23;20009;-76
2023/04/30 08:04:26;;;;;;;12.23;3.40;;;10.00;99.90;;;;;;6186112;23;20009;-77
2023/04/30 08:06:51;;;;;;;10.75;3.95;;;10.00;99.90;;;;;;6159343;23;20032;-77
2023/04/30 08:09:17;;;;;;;7.88;3.45;;;10.10;99.90;;;;;;6159423;23;20036;-77
2023/04/30 08:11:42;;;;;;;7.72;3.22;;;10.20;99.90;;;;;;6134939;23;20063;-82
2023/04/30 08:14:08;;;;;;;7.47;3.50;;;10.30;99.90;;;;;;6159282;23;20013;-78
2023/04/30 08:16:34;;;;;;;8.30;3.40;;;10.40;99.90;;;;;;6134708;23;20017;-77
2023/04/30 08:18:59;;;;;;;8.43;3.60;;;10.40;99.90;;;;;;6185859;23;20017;-77
2023/04/30 08:21:27;;;;;;;9.18;3.55;;;10.50;99.90;;;;;;6152749;23;20021;-78
2023/04/30 08:23:53;;;;;;;8.05;3.63;;;10.60;99.90;;;;;;6184277;23;20017;-78
2023/04/30 08:26:19;;;;;;;11.30;4.40;;;10.60;99.90;;;;;;6159270;23;20016;-77
2023/04/30 08:28:45;;;;;;;7.70;3.58;;;10.70;99.90;;;;;;6159062;23;20014;-77
2023/04/30 08:31:12;;;;;;;9.85;4.18;;;10.80;99.90;;;;;;6159161;23;20093;-77
2023/04/30 08:33:37;;;;;;;11.48;3.85;;;10.90;99.90;;;;;;6184242;23;20013;-77
2023/04/30 08:36:03;;;;;;;11.25;4.07;;;11.00;99.90;;;;;;6184186;23;20437;-75
2023/04/30 08:38:29;;;;;;;10.73;3.55;;;11.10;99.90;;;;;;6185370;23;20017;-81
2023/04/30 08:41:15;;;;;;;10.43;4.85;;;11.20;99.90;;;;;;6159049;23;20061;-75
2023/04/30 08:43:41;;;;;;;10.40;3.63;;;11.30;99.90;;;;;;6159060;23;20017;-78
2023/04/30 08:46:07;;;;;;;7.50;3.78;;;11.30;99.90;;;;;;6159256;23;20033;-78
2023/04/30 08:48:33;;;;;;;10.90;3.80;;;11.40;99.90;;;;;;6183879;23;20020;-78
2023/04/30 08:51:03;;;;;;;7.45;3.90;;;11.50;99.90;;;;;;6159144;23;20084;-78
2023/04/30 08:53:39;;;;;;;11.07;3.58;;;11.50;99.90;;;;;;6159007;23;20017;-79
2023/04/30 08:56:05;;;;;;;7.30;2.88;;;11.50;99.90;;;;;;6184552;23;20019;-80
2023/04/30 08:58:31;;;;;;;11.27;3.97;;;11.60;99.90;;;;;;6183755;23;20012;-78
2023/04/30 09:01:01;;;;;;;7.93;3.65;;;11.60;99.90;;;;;;6160600;23;20017;-80
2023/04/30 09:03:27;;;;;;;;;;;11.60;99.90;;;;;;6161249;23;20095;-80
2023/04/30 09:05:54;;;;;;;8.55;3.75;;;11.70;99.90;;;;;;6160763;23;20000;-79
2023/04/30 09:08:46;;;;;;;8.85;3.35;;;11.70;99.90;;;;;;6185989;23;20009;-80
2023/04/30 09:11:26;;;;;;;10.57;3.70;;;11.80;99.90;;;;;;6161023;23;20061;-79
2023/04/30 09:13:56;;;;;;;7.75;3.20;;;11.70;99.90;;;;;;6186360;23;20441;-78
2023/04/30 09:16:23;;;;;;;8.25;4.00;;;11.90;99.90;;;;;;6160786;23;20182;-81
2023/04/30 09:18:49;;;;;;;8.27;3.50;;;11.90;99.90;;;;;;6185965;23;20009;-82
2023/04/30 09:21:15;;;;;;;7.43;3.20;;;12.00;99.90;;;;;;6185335;23;20492;-82
2023/04/30 09:23:54;;;;;;;11.57;4.00;;;12.10;99.90;;;;;;6160763;23;20068;-82
2023/04/30 09:26:26;;;;;;;9.82;3.38;;;12.20;99.90;;;;;;6185670;23;20084;-81
2023/04/30 09:28:56;;;;;;;8.60;2.92;;;12.20;99.90;;;;;;6185980;23;20150;-82
2023/04/30 09:31:23;;;;;;;7.70;3.15;;;12.30;99.90;;;;;;6185889;23;20101;-82
2023/04/30 09:33:50;;;;;;;10.80;3.95;;;12.30;99.90;;;;;;6185484;23;20013;-81
2023/04/30 09:36:15;;;;;;;12.18;3.80;;;12.40;99.90;;;;;;6160767;23;20016;-82
2023/04/30 09:38:41;;;;;;;9.55;4.22;;;12.40;99.90;;;;;;6187216;23;20033;-82
2023/04/30 09:41:25;;;;;;;10.13;3.90;;;12.40;99.90;;;;;;6185411;23;20021;-82
2023/04/30 09:43:51;;;;;;;9.25;3.75;;;12.30;99.90;;;;;;6185408;23;20013;-82
2023/04/30 09:46:21;;;;;;;6.90;3.22;;;12.20;99.90;;;;;;6187338;23;20017;-82
2023/04/30 09:48:54;;;;;;;;;;;12.10;99.90;;;;;;6187426;23;20426;-82
2023/04/30 09:51:20;;;;;;;7.28;3.33;;;12.20;99.90;;;;;;6187256;23;19964;-81
2023/04/30 09:53:46;;;;;;;8.60;2.95;;;12.20;99.90;;;;;;6185393;23;20017;-82
2023/04/30 09:56:14;;;;;;;8.68;3.00;;;12.20;99.90;;;;;;6187123;23;20013;-73
2023/04/30 09:58:43;;;;;;;5.15;2.95;;;12.30;99.90;;;;;;6185322;23;20017;-78
2023/04/30 10:01:12;;;;;;;10.85;3.80;;;12.30;99.90;;;;;;6160475;23;20024;-74
2023/04/30 10:03:42;;;;;;;10.15;3.60;;;12.40;99.90;;;;;;6186683;23;20450;-74
2023/04/30 10:06:08;;;;;;;6.57;3.40;;;12.50;99.90;;;;;;6185874;23;20366;-74
2023/04/30 10:08:42;;;;;;;7.80;4.00;;;12.50;99.90;;;;;;6187402;23;20013;-74
2023/04/30 10:11:15;;;;;;;7.75;3.45;;;12.50;99.90;;;;;;6185380;23;20013;-74
2023/04/30 10:13:49;;;;;;;6.18;2.90;;;12.50;99.90;;;;;;6185428;23;20063;-74
2023/04/30 10:16:32;;;;;;;5.93;3.13;;;12.60;99.90;;;;;;6185356;23;20021;-74
2023/04/30 10:19:01;;;;;;;7.45;3.45;;;12.70;99.90;;;;;;6160487;23;20012;-73
2023/04/30 10:21:27;;;;;;;6.97;3.00;;;12.70;99.90;;;;;;6185128;23;20021;-72
2023/04/30 10:23:54;;;;;;;7.90;3.30;;;12.60;99.90;;;;;;6186575;23;20092;-71
2023/04/30 10:26:20;;;;;;;5.82;2.72;;;12.50;99.90;;;;;;6186733;23;20443;-73
2023/04/30 10:28:49;;;;;;;5.90;2.80;;;12.60;99.90;;;;;;6160523;23;20013;-73
2023/04/30 10:31:16;;;;;;;6.55;3.30;;;12.70;99.90;;;;;;6186797;23;20430;-74
2023/04/30 10:34:03;;;;;;;7.40;3.20;;;12.80;99.90;;;;;;6186845;23;20466;-79
2023/04/30 10:36:40;;;;;;;8.10;3.15;;;12.90;99.90;;;;;;6160488;23;20017;-78
2023/04/30 10:39:06;;;;;;;7.50;3.28;;;12.90;99.90;;;;;;6186674;23;20017;-78
2023/04/30 10:41:32;;;;;;;5.63;3.20;;;13.00;99.90;;;;;;6160314;23;20079;-78
2023/04/30 10:44:01;;;;;;;5.72;2.95;;;13.00;99.90;;;;;;6184928;23;20374;-78
2023/04/30 10:46:27;;;;;;;10.05;3.65;;;13.00;99.90;;;;;;6185477;23;20370;-78
2023/04/30 10:48:56;;;;;;;6.95;3.38;;;13.00;99.90;;;;;;6186519;23;20434;-79
2023/04/30 10:51:22;;;;;;;7.40;2.80;;;13.20;99.90;;;;;;6185532;23;20017;-78
2023/04/30 10:53:53;;;;;;;5.97;3.05;;;13.30;99.90;;;;;;6160322;23;20016;-78
2023/04/30 10:56:32;;;;;;;5.68;3.25;;;13.30;99.90;;;;;;6160230;23;20017;-79
2023/04/30 10:59:01;;;;;;;7.97;3.47;;;13.30;99.90;;;;;;6160314;23;20017;-78
2023/04/30 11:01:27;;;;;;;5.78;3.03;;;13.40;99.90;;;;;;6185385;23;20055;-79
2023/04/30 11:04:07;;;;;;;5.97;3.15;;;13.50;99.90;;;;;;6160003;23;20009;-78
2023/04/30 11:07:07;;;;;;;6.75;3.13;;;13.60;99.90;;;;;;6160137;23;20016;-79
2023/04/30 11:09:38;;;;;;;5.18;3.13;;;13.60;99.90;;;;;;6159477;23;20032;-74
2023/04/30 11:12:19;;;;;;;6.25;3.10;;;13.60;99.90;;;;;;6184689;23;20017;-74
2023/04/30 11:14:45;;;;;;;7.10;3.55;;;13.80;99.90;;;;;;6185290;23;20017;-75
2023/04/30 11:17:21;;;;;;;7.53;3.40;;;13.70;99.90;;;;;;6184718;23;20020;-75
2023/04/30 11:19:52;;;;;;;6.20;3.45;;;13.70;99.90;;;;;;6184599;23;20083;-75
2023/04/30 11:22:23;;;;;;;7.38;3.35;;;13.70;99.90;;;;;;6160069;23;20017;-75
2023/04/30 11:24:58;;;;;;;7.85;3.40;;;13.70;99.90;;;;;;6135330;23;20095;-75
2023/04/30 11:27:25;;;;;;;5.22;3.65;;;13.90;99.90;;;;;;6159725;23;20059;-75
2023/04/30 11:29:52;;;;;;;7.07;4.03;;;14.00;99.90;;;;;;6159734;23;20087;-75
2023/04/30 11:32:19;;;;;;;5.28;3.05;;;14.00;99.90;;;;;;6135317;23;20013;-75
2023/04/30 11:34:45;;;;;;;5.65;3.22;;;14.10;99.90;;;;;;6159685;23;20096;-75
2023/04/30 11:37:34;;;;;;;6.40;3.58;;;14.20;99.90;;;;;;6135424;23;20470;-76
2023/04/30 11:40:09;;;;;;;5.03;3.60;;;14.30;99.90;;;;;;6160085;23;20040;-76
2023/04/30 11:42:38;;;;;;;5.88;3.55;;;14.40;99.90;;;;;;6159635;23;20123;-76
2023/04/30 11:45:08;;;;;;;8.32;3.65;;;14.40;99.90;;;;;;6135303;23;20013;-77
2023/04/30 11:47:40;;;;;;;6.95;3.17;;;14.50;99.90;;;;;;6135059;23;20013;-77
2023/04/30 11:50:11;;;;;;;5.20;3.38;;;14.60;99.90;;;;;;6135177;23;20013;-74
2023/04/30 11:52:38;;;;;;;6.15;3.20;;;14.70;99.90;;;;;;6159573;23;20023;-76
2023/04/30 11:55:15;;;;;;;4.93;3.00;;;14.80;99.90;;;;;;6159484;23;20039;-76
2023/04/30 11:57:45;;;;;;;5.60;3.22;;;14.80;99.90;;;;;;6186170;23;20044;-76
2023/04/30 12:00:30;;;;;;;5.45;3.00;;;14.70;99.90;;;;;;6186151;23;20067;-76
2023/04/30 12:02:58;;;;;;;5.70;3.00;;;14.80;99.90;;;;;;6186120;23;20050;-76
2023/04/30 12:05:26;;;;;;;4.82;2.80;;;14.80;99.90;;;;;;6186112;23;20080;-76
2023/04/30 12:08:05;;;;;;;5.50;2.50;;;14.90;99.90;;;;;;6135058;23;20139;-76
2023/04/30 12:10:31;;;;;;;4.18;2.60;;;15.00;99.90;;;;;;6134812;23;20013;-76
2023/04/30 12:12:57;;;;;;;5.05;2.55;;;15.10;99.90;;;;;;6134814;23;20021;-79
2023/04/30 12:15:27;;;;;;;3.67;2.67;;;15.10;99.90;;;;;;6134938;23;20323;-77
2023/04/30 12:18:09;;;;;;;5.15;3.05;;;15.00;99.90;;;;;;6159587;23;20009;-76
2023/04/30 12:20:35;;;;;;;4.65;2.88;;;15.10;99.90;;;;;;6167466;23;20100;-77
2023/04/30 12:23:01;;;;;;;6.65;3.13;;;15.10;99.90;;;;;;6186015;23;20092;-77
2023/04/30 12:25:28;;;;;;;5.40;2.95;;;15.30;99.90;;;;;;6184425;23;20017;-77
2023/04/30 12:27:53;;;;;;;6.50;3.60;;;15.40;99.90;;;;;;6159368;23;20009;-77
2023/04/30 12:30:25;;;;;;;6.55;2.58;;;15.50;99.90;;;;;;6159425;23;20033;-77
2023/04/30 12:32:53;;;;;;;3.25;2.78;;;15.60;99.70;;;;;;6159446;23;20015;-77
2023/04/30 12:35:21;;;;;;;5.40;3.17;;;15.60;99.60;;;;;;6160445;23;20016;-76
2023/04/30 12:38:08;;;;;;;3.67;2.88;;;15.70;99.90;;;;;;6186151;23;20023;-78
2023/04/30 12:40:34;;;;;;;6.18;3.13;;;15.90;99.30;;;;;;6161353;23;20020;-77
2023/04/30 12:43:01;;;;;;;6.68;3.40;;;16.00;99.90;;;;;;6186034;23;20013;-78
2023/04/30 12:45:59;;;;;;;4.97;2.70;;;16.10;99.90;;;;;;6186508;23;20021;-77
2023/04/30 12:48:25;;;;;;;5.30;3.17;;;16.10;99.50;;;;;;6106744;23;20013;-77
2023/04/30 12:51:01;;;;;;;5.05;2.85;;;16.20;99.50;;;;;;6186223;23;20028;-76
2023/04/30 12:53:28;;;;;;;4.85;2.72;;;16.30;98.80;;;;;;6161241;23;20545;-77
2023/04/30 12:56:28;;;;;;;4.43;2.70;;;16.30;99.00;;;;;;6188075;23;20009;-78